Time;durP1;ratioP1;P1;durP2;ratioP2;P2;SDS_P1;SDS_P2;PMS_P1;PMS_P2;Temp;Humidity;BMP_temperature;BMP_pressure;BME280_temperature;BME280_humidity;BME280_pressure;Samples;Min_cycle;Max_cycle;Signal;HPM_P1;HPM_P2
2021/03/29 00:02:18;;;;;;;19.12;11.75;;;;;;;7.25;70.00;101281.64;1705478;82;21240;-57
2021/03/29 00:04:47;;;;;;;16.12;10.00;;;;;;;7.28;69.85;101282.80;1645921;82;21251;-56
2021/03/29 00:07:15;;;;;;;17.80;10.93;;;;;;;7.27;69.74;101278.48;1709825;82;21231;-56
2021/03/29 00:09:44;;;;;;;17.90;10.32;;;;;;;7.20;69.80;101291.03;1702035;82;21238;-58
2021/03/29 00:12:12;;;;;;;19.07;11.50;;;;;;;7.22;69.82;101280.48;1679140;84;21177;-57
2021/03/29 00:14:40;;;;;;;17.82;10.95;;;;;;;7.24;69.66;101283.39;1704953;84;21183;-57
2021/03/29 00:17:10;;;;;;;17.60;11.12;;;;;;;7.21;69.69;101288.81;1710570;82;21196;-57
2021/03/29 00:19:39;;;;;;;18.57;11.63;;;;;;;7.16;69.68;101285.59;1706127;82;21908;-57
2021/03/29 00:22:07;;;;;;;19.12;12.13;;;;;;;7.16;69.71;101293.88;1681610;82;21212;-57
2021/03/29 00:24:36;;;;;;;16.87;10.75;;;;;;;7.18;69.56;101298.13;1701584;82;21588;-57
2021/03/29 00:27:07;;;;;;;22.10;11.33;;;;;;;7.23;69.32;101296.59;1709061;82;21195;-57
2021/03/29 00:29:34;;;;;;;18.05;11.25;;;;;;;7.19;69.35;101298.49;1691933;84;21718;-56
2021/03/29 00:32:06;;;;;;;15.63;11.22;;;;;;;7.13;69.38;101301.44;1706259;82;21627;-57
2021/03/29 00:34:34;;;;;;;18.17;12.60;;;;;;;7.16;69.41;101309.14;1708506;82;21204;-57
2021/03/29 00:37:05;;;;;;;18.25;11.20;;;;;;;7.19;69.21;101297.18;1702692;82;21227;-57
2021/03/29 00:39:36;;;;;;;15.90;10.03;;;;;;;7.14;69.37;101301.81;1682167;84;21214;-56
2021/03/29 00:42:05;;;;;;;17.35;12.03;;;;;;;7.09;69.47;101314.28;1653613;85;21235;-56
2021/03/29 00:44:35;;;;;;;19.67;11.93;;;;;;;7.09;69.50;101305.13;1678802;83;21218;-57
2021/03/29 00:47:03;;;;;;;19.82;12.40;;;;;;;7.13;69.23;101299.27;1649558;85;21222;-57
2021/03/29 00:49:30;;;;;;;19.07;11.30;;;;;;;7.09;69.37;101302.51;1685635;83;21237;-57
2021/03/29 00:51:58;;;;;;;16.30;10.08;;;;;;;7.08;69.48;101308.69;1682258;83;21190;-58
2021/03/29 00:54:27;;;;;;;18.20;11.00;;;;;;;7.13;69.22;101311.05;1684754;83;21155;-58
2021/03/29 00:56:55;;;;;;;20.62;12.13;;;;;;;7.11;69.18;101308.97;1670025;84;21173;-57
2021/03/29 00:59:22;;;;;;;19.57;12.25;;;;;;;7.04;69.39;101313.23;1678910;82;21474;-57
2021/03/29 01:01:51;;;;;;;16.42;10.18;;;;;;;7.03;69.45;101320.69;1663525;83;21237;-57
2021/03/29 01:04:20;;;;;;;16.75;9.85;;;;;;;7.10;69.10;101324.31;1673371;83;21174;-57
2021/03/29 01:06:51;;;;;;;16.93;11.53;;;;;;;7.03;69.36;101325.08;1692026;83;21573;-57
2021/03/29 01:09:26;;;;;;;17.23;9.28;;;;;;;6.98;69.43;101321.37;1694675;83;21172;-57
2021/03/29 01:11:59;;;;;;;18.17;10.85;;;;;;;6.99;69.41;101329.63;1695609;83;21209;-57
2021/03/29 01:14:31;;;;;;;19.48;11.78;;;;;;;7.02;69.27;101321.59;1690226;84;21217;-57
2021/03/29 01:17:31;;;;;;;21.68;11.28;;;;;;;7.01;69.27;101333.45;1697854;83;21197;-57
2021/03/29 01:20:07;;;;;;;17.17;11.30;;;;;;;6.95;69.33;101324.61;1684399;83;21598;-57
2021/03/29 01:22:46;;;;;;;17.92;11.12;;;;;;;6.96;69.46;101326.29;1684719;83;22149;-57
2021/03/29 01:25:43;;;;;;;19.37;12.10;;;;;;;7.01;69.16;101336.06;1697765;83;21194;-57
2021/03/29 01:28:15;;;;;;;16.32;10.30;;;;;;;6.97;69.24;101334.53;1690902;83;21164;-57
2021/03/29 01:30:43;;;;;;;18.27;11.88;;;;;;;6.90;69.34;101335.77;1702013;83;21584;-57
2021/03/29 01:33:11;;;;;;;15.98;10.90;;;;;;;6.94;69.31;101337.30;1706866;83;21151;-57
2021/03/29 01:35:43;;;;;;;18.05;11.20;;;;;;;6.97;69.29;101339.77;1672973;83;21223;-59
2021/03/29 01:38:13;;;;;;;13.83;9.75;;;;;;;6.95;69.27;101339.84;1709754;83;21670;-57
2021/03/29 01:40:41;;;;;;;19.30;11.75;;;;;;;6.92;69.30;101347.00;1707397;83;21183;-57
2021/03/29 01:43:11;;;;;;;17.40;10.03;;;;;;;6.95;69.34;101342.45;1672630;84;21224;-58
2021/03/29 01:45:38;;;;;;;17.02;11.38;;;;;;;6.99;69.03;101340.09;1674215;83;21184;-57
2021/03/29 01:48:08;;;;;;;19.42;10.70;;;;;;;6.93;69.34;101349.55;1699247;83;21525;-57
2021/03/29 01:50:39;;;;;;;16.05;10.10;;;;;;;6.90;69.32;101346.23;1696745;83;21597;-57
2021/03/29 01:53:08;;;;;;;19.45;11.45;;;;;;;6.95;69.26;101343.77;1691364;83;21191;-57
2021/03/29 01:55:36;;;;;;;14.93;9.73;;;;;;;6.94;69.17;101348.60;1686809;83;21209;-57
2021/03/29 01:58:06;;;;;;;17.32;11.12;;;;;;;6.91;69.14;101355.76;1698092;83;21224;-58
2021/03/29 02:00:52;;;;;;;20.43;12.70;;;;;;;6.86;69.31;101349.47;1696568;83;21306;-58
2021/03/29 02:03:21;;;;;;;19.70;11.08;;;;;;;6.92;69.15;101351.77;1767151;79;21515;-56
2021/03/29 02:05:51;;;;;;;19.00;11.50;;;;;;;6.92;69.06;101350.92;1754874;80;21201;-57
2021/03/29 02:08:19;;;;;;;17.20;10.90;;;;;;;6.88;69.16;101356.30;1749581;79;21209;-56
2021/03/29 02:10:46;;;;;;;18.17;10.23;;;;;;;6.84;69.31;101359.14;1793612;79;21187;-57
2021/03/29 02:13:20;;;;;;;21.68;12.88;;;;;;;6.91;69.15;101353.14;1774722;80;21863;-57
2021/03/29 02:15:56;;;;;;;;;;;;;;;6.90;69.26;101350.16;1759428;80;21166;-56
2021/03/29 02:18:26;;;;;;;14.28;8.65;;;;;;;6.87;69.16;101368.98;1767566;79;20733;-56
2021/03/29 02:21:00;;;;;;;17.55;10.45;;;;;;;6.77;69.48;101370.36;1715168;81;21181;-56
2021/03/29 02:23:28;;;;;;;16.67;10.03;;;;;;;6.80;69.55;101373.30;1732564;81;21200;-57
2021/03/29 02:25:55;;;;;;;19.30;10.55;;;;;;;6.84;69.43;101371.78;1731415;81;21340;-57
2021/03/29 02:28:23;;;;;;;16.23;9.73;;;;;;;6.82;69.32;101374.06;1743374;79;21146;-58
2021/03/29 02:30:50;;;;;;;16.97;10.98;;;;;;;6.79;69.53;101381.63;1744486;80;21214;-56
2021/03/29 02:33:17;;;;;;;17.48;10.85;;;;;;;6.83;69.58;101379.23;1777889;79;21199;-56
2021/03/29 02:35:46;;;;;;;16.45;10.48;;;;;;;6.88;69.28;101377.70;1774485;79;21175;-56
2021/03/29 02:38:18;;;;;;;18.52;10.68;;;;;;;6.84;69.46;101378.32;1802752;79;21214;-56
2021/03/29 02:40:52;;;;;;;16.45;10.30;;;;;;;6.81;69.59;101383.69;1719619;81;21145;-57
2021/03/29 02:43:20;;;;;;;18.25;11.53;;;;;;;6.86;69.57;101392.17;1729273;82;21182;-56
2021/03/29 02:45:58;;;;;;;21.23;11.93;;;;;;;6.91;69.33;101388.03;1780143;79;21229;-56
2021/03/29 02:48:28;;;;;;;17.92;11.25;;;;;;;6.87;69.24;101387.30;1743892;82;21216;-56
2021/03/29 02:50:58;;;;;;;13.40;10.25;;;;;;;6.85;69.39;101387.84;1736771;81;22274;-58
2021/03/29 02:53:32;;;;;;;20.97;12.28;;;;;;;6.85;69.68;101390.93;1740043;81;21171;-57
2021/03/29 02:56:08;;;;;;;16.70;10.43;;;;;;;6.90;69.48;101393.33;1715961;82;21229;-57
2021/03/29 02:58:39;;;;;;;;;;;;;;;6.87;69.56;101391.22;1730805;81;21231;-57
2021/03/29 03:01:10;;;;;;;13.98;9.10;;;;;;;6.82;69.64;101390.60;1718282;81;20242;-57
2021/03/29 03:03:38;;;;;;;20.23;10.72;;;;;;;6.80;69.80;101392.45;1782179;79;21363;-57
2021/03/29 03:06:06;;;;;;;23.52;11.45;;;;;;;6.87;69.77;101395.16;1773520;80;21486;-58
2021/03/29 03:08:36;;;;;;;18.70;11.00;;;;;;;6.90;69.69;101387.62;1775881;79;21152;-58
2021/03/29 03:11:10;;;;;;;17.40;11.35;;;;;;;6.87;69.64;101397.77;1745138;80;21196;-59
2021/03/29 03:13:47;;;;;;;18.95;11.53;;;;;;;6.93;69.68;101399.26;1872085;74;22798;-58
2021/03/29 03:16:15;;;;;;;25.02;12.25;;;;;;;6.95;69.53;101405.73;1753265;80;21203;-58
2021/03/29 03:18:44;;;;;;;17.98;10.90;;;;;;;6.91;69.58;101401.11;1779837;78;21155;-59
2021/03/29 03:21:16;;;;;;;21.17;11.57;;;;;;;6.91;69.57;101408.09;1737528;80;21231;-58
2021/03/29 03:23:56;;;;;;;19.62;12.10;;;;;;;6.88;69.72;101409.94;1771712;79;21207;-57
2021/03/29 03:26:24;;;;;;;21.65;12.82;;;;;;;6.93;69.47;101414.95;1774470;78;21200;-58
2021/03/29 03:28:52;;;;;;;18.30;11.18;;;;;;;6.90;69.58;101420.80;1784744;78;21243;-58
2021/03/29 03:31:20;;;;;;;16.57;11.38;;;;;;;6.88;69.66;101413.03;1807040;78;21271;-57
2021/03/29 03:33:48;;;;;;;21.62;12.25;;;;;;;6.93;69.60;101419.35;1810292;78;21199;-58
2021/03/29 03:36:18;;;;;;;18.45;10.43;;;;;;;6.97;69.43;101417.80;1774456;79;21659;-57
2021/03/29 03:38:51;;;;;;;17.55;10.35;;;;;;;6.94;69.58;101431.50;1782961;78;21247;-58
2021/03/29 03:41:32;;;;;;;19.20;11.60;;;;;;;6.87;69.64;101423.92;1750453;80;21220;-57
2021/03/29 03:44:01;;;;;;;18.55;10.82;;;;;;;6.89;69.79;101427.78;1778905;78;21235;-58
2021/03/29 03:46:33;;;;;;;19.25;11.45;;;;;;;6.93;69.72;101431.13;1808325;77;21520;-59
2021/03/29 03:49:11;;;;;;;16.82;10.40;;;;;;;6.89;69.89;101431.70;1789173;78;21207;-56
2021/03/29 03:51:40;;;;;;;19.35;10.40;;;;;;;6.84;69.97;101437.63;1783040;78;21222;-58
2021/03/29 03:54:08;;;;;;;17.92;9.38;;;;;;;6.86;69.91;101435.34;1799535;77;21128;-58
2021/03/29 03:56:36;;;;;;;20.60;11.80;;;;;;;6.89;69.75;101438.25;1785969;78;21223;-58
2021/03/29 03:59:05;;;;;;;18.27;9.35;;;;;;;6.85;69.76;101449.80;1784012;79;21166;-58
2021/03/29 04:01:50;;;;;;;17.32;11.00;;;;;;;6.80;69.90;101452.62;1814256;78;21175;-58
2021/03/29 04:04:17;;;;;;;16.65;11.18;;;;;;;6.88;69.76;101457.03;1767859;78;21173;-59
2021/03/29 04:06:45;;;;;;;16.48;10.20;;;;;;;6.88;69.76;101457.03;1749884;80;21207;-58
2021/03/29 04:09:14;;;;;;;18.70;10.50;;;;;;;6.87;69.70;101447.48;1804768;78;21189;-57
2021/03/29 04:11:49;;;;;;;16.75;10.70;;;;;;;6.82;69.91;101463.85;1784039;79;21568;-57
2021/03/29 04:14:13;;;;;;;18.57;9.90;;;;;;;6.87;69.71;101466.27;1750266;79;21586;-57
2021/03/29 04:16:42;;;;;;;19.50;10.93;;;;;;;6.89;69.78;101468.34;1803386;78;21092;-56
2021/03/29 04:19:10;;;;;;;17.12;10.48;;;;;;;6.87;69.80;101474.11;1786667;78;21128;-56
2021/03/29 04:21:38;;;;;;;19.85;10.08;;;;;;;6.85;70.32;101474.18;1813627;77;21345;-57
2021/03/29 04:24:07;;;;;;;18.15;11.80;;;;;;;6.99;69.86;101479.22;1803697;78;21183;-57
2021/03/29 04:26:35;;;;;;;17.10;10.10;;;;;;;7.06;69.58;101474.95;1784719;78;21223;-56
2021/03/29 04:29:03;;;;;;;18.62;10.60;;;;;;;7.10;69.32;101483.49;1807792;78;21172;-57
2021/03/29 04:31:32;;;;;;;17.35;9.65;;;;;;;7.08;69.25;101482.73;1811713;77;21124;-57
2021/03/29 04:34:00;;;;;;;15.88;9.50;;;;;;;7.10;69.30;101495.74;1785674;77;21307;-58
2021/03/29 04:36:27;;;;;;;17.48;10.60;;;;;;;7.16;69.00;101491.06;1814120;78;21100;-56
2021/03/29 04:38:55;;;;;;;19.80;10.85;;;;;;;7.17;69.07;101495.83;1780219;78;21193;-57
2021/03/29 04:41:23;;;;;;;18.87;10.63;;;;;;;7.15;69.09;101497.67;1745683;80;21112;-58
2021/03/29 04:43:51;;;;;;;15.23;9.58;;;;;;;7.11;69.15;101499.59;1783575;78;21167;-57
2021/03/29 04:46:19;;;;;;;18.87;9.50;;;;;;;7.04;69.25;101506.89;1774754;78;21216;-57
2021/03/29 04:48:46;;;;;;;17.87;9.15;;;;;;;7.06;69.39;101499.81;1806389;77;21192;-58
2021/03/29 04:51:15;;;;;;;14.70;8.88;;;;;;;7.13;69.19;101498.19;1751131;78;21176;-57
2021/03/29 04:53:42;;;;;;;15.95;8.18;;;;;;;7.08;69.15;101507.59;1772101;78;21224;-57
2021/03/29 04:56:10;;;;;;;17.55;10.20;;;;;;;7.00;69.22;101511.86;1812614;77;21190;-57
2021/03/29 04:58:37;;;;;;;18.73;10.00;;;;;;;6.97;69.51;101513.78;1779703;78;21204;-58
2021/03/29 05:01:05;;;;;;;15.93;9.60;;;;;;;7.01;69.50;101511.39;1783199;79;21108;-58
2021/03/29 05:03:33;;;;;;;20.82;10.13;;;;;;;7.04;69.39;101519.11;1778326;78;22204;-58
2021/03/29 05:06:00;;;;;;;18.82;9.98;;;;;;;7.04;69.45;101521.72;1774663;78;21215;-58
2021/03/29 05:08:29;;;;;;;16.37;8.70;;;;;;;7.04;69.35;101519.11;1762510;78;21717;-59
2021/03/29 05:10:56;;;;;;;16.77;9.93;;;;;;;7.05;69.27;101520.81;1785273;78;21201;-56
2021/03/29 05:13:23;;;;;;;15.30;8.95;;;;;;;7.13;69.12;101517.38;1777394;78;21153;-58
2021/03/29 05:15:54;;;;;;;18.48;9.83;;;;;;;7.13;69.03;101521.30;1774661;78;21121;-58
2021/03/29 05:18:34;;;;;;;16.77;9.58;;;;;;;7.12;69.04;101514.36;1871344;74;22683;-56
2021/03/29 05:21:03;;;;;;;15.68;9.80;;;;;;;7.06;69.09;101523.36;1811025;78;21160;-57
2021/03/29 05:23:31;;;;;;;15.75;9.03;;;;;;;7.08;68.89;101521.98;1782303;78;21215;-57
2021/03/29 05:25:59;;;;;;;17.60;10.50;;;;;;;7.10;68.78;101521.45;1795437;78;21611;-57
2021/03/29 05:28:28;;;;;;;16.05;9.65;;;;;;;7.07;69.00;101526.82;1795853;78;21064;-58
2021/03/29 05:30:56;;;;;;;20.37;11.65;;;;;;;7.09;69.03;101531.98;1783459;78;21149;-57
2021/03/29 05:36:38;;;;;;;19.65;12.03;;;;;;;7.15;68.55;101528.62;1805445;78;23200;-57
2021/03/29 05:39:08;;;;;;;19.50;11.28;;;;;;;7.17;68.52;101535.93;1767808;80;21168;-58
2021/03/29 05:41:40;;;;;;;20.68;10.93;;;;;;;7.18;68.54;101544.19;1777978;78;21271;-58
2021/03/29 05:44:10;;;;;;;19.70;10.05;;;;;;;7.15;68.42;101543.48;1704453;81;21211;-59
2021/03/29 05:46:40;;;;;;;15.80;10.40;;;;;;;7.09;68.53;101551.61;1688891;83;21196;-59
2021/03/29 05:49:09;;;;;;;17.90;10.65;;;;;;;7.09;68.66;101559.00;1735877;80;21372;-59
2021/03/29 05:51:38;;;;;;;17.95;10.82;;;;;;;7.18;68.58;101557.74;1735154;80;21115;-58
2021/03/29 05:54:07;;;;;;;15.08;9.45;;;;;;;7.22;68.36;101567.13;1738217;81;22031;-61
2021/03/29 05:56:38;;;;;;;13.20;8.63;;;;;;;7.20;68.39;101568.52;1741529;80;21247;-67
2021/03/29 05:59:12;;;;;;;15.30;9.08;;;;;;;7.18;68.43;101574.28;1735927;81;21552;-66
2021/03/29 06:02:10;;;;;;;16.05;9.93;;;;;;;7.18;68.14;101574.28;1715505;81;21151;-65
2021/03/29 06:04:48;;;;;;;18.73;10.28;;;;;;;7.19;68.06;101574.66;1582122;88;21171;-62
2021/03/29 06:07:22;;;;;;;16.62;10.80;;;;;;;7.09;68.21;101579.94;1614006;87;22250;-66
2021/03/29 06:09:52;;;;;;;17.73;10.10;;;;;;;7.03;68.45;101581.55;1594680;86;21204;-65
2021/03/29 06:12:20;;;;;;;17.62;11.48;;;;;;;7.07;68.43;101593.09;1561682;90;21199;-66
2021/03/29 06:15:00;;;;;;;16.82;9.93;;;;;;;7.12;68.49;101594.20;1589687;88;21181;-67
2021/03/29 06:17:28;;;;;;;18.23;10.23;;;;;;;7.11;68.31;101589.90;1618294;86;21694;-65
2021/03/29 06:19:58;;;;;;;18.60;10.65;;;;;;;7.05;68.39;101594.09;1589408;87;21235;-64
2021/03/29 06:22:36;;;;;;;15.83;9.15;;;;;;;7.04;68.66;101591.08;1620556;86;21262;-62
2021/03/29 06:25:16;;;;;;;15.55;10.72;;;;;;;7.10;68.39;101601.27;1617371;86;21199;-64
2021/03/29 06:27:55;;;;;;;16.85;10.18;;;;;;;7.09;68.33;101597.41;1617723;86;21231;-65
2021/03/29 06:30:36;;;;;;;16.25;9.93;;;;;;;7.03;68.42;101601.17;1615662;86;21275;-64
2021/03/29 06:33:12;;;;;;;21.20;10.58;;;;;;;7.00;68.56;101602.15;1612958;86;21223;-63
2021/03/29 06:35:50;;;;;;;17.80;11.57;;;;;;;7.06;68.51;101602.31;1613176;86;21240;-64
2021/03/29 06:38:29;;;;;;;17.05;11.95;;;;;;;7.13;68.31;101612.92;1581973;88;21211;-61
2021/03/29 06:40:59;;;;;;;19.70;12.60;;;;;;;7.13;68.25;101606.81;1620710;86;21181;-60
2021/03/29 06:43:39;;;;;;;19.42;11.97;;;;;;;7.08;68.27;101607.05;1591392;88;21286;-60
2021/03/29 06:46:27;;;;;;;21.60;11.68;;;;;;;7.04;68.45;101615.94;1620561;86;21516;-62
2021/03/29 06:48:58;;;;;;;19.45;12.10;;;;;;;7.08;68.34;101618.83;1612379;86;21255;-62
2021/03/29 06:51:31;;;;;;;16.87;11.03;;;;;;;7.06;68.40;101614.97;1615570;86;21772;-67
2021/03/29 06:54:08;;;;;;;19.82;12.28;;;;;;;7.03;68.40;101630.80;1612494;86;21215;-62
2021/03/29 06:56:50;;;;;;;20.60;12.50;;;;;;;7.01;68.65;101627.84;1609459;86;21244;-64
2021/03/29 07:12:53;;;;;;;19.40;12.73;;;;;;;7.00;68.95;101640.09;1875432;74;22684;-55
2021/03/29 07:15:22;;;;;;;19.80;12.13;;;;;;;6.92;69.06;101647.44;1781841;78;21273;-56
2021/03/29 07:17:50;;;;;;;20.00;11.48;;;;;;;6.94;69.06;101652.14;1784632;78;21215;-58
2021/03/29 07:20:25;;;;;;;17.70;11.10;;;;;;;7.05;68.87;101654.30;1814127;78;21064;-59
2021/03/29 07:22:53;;;;;;;21.45;13.03;;;;;;;7.10;68.70;101652.31;1812432;78;21171;-57
2021/03/29 07:25:24;;;;;;;18.23;10.65;;;;;;;7.11;68.51;101655.77;1779045;78;21136;-56
2021/03/29 07:27:54;;;;;;;22.20;12.78;;;;;;;7.08;68.57;101647.62;1782375;78;21140;-57
2021/03/29 07:30:50;;;;;;;22.20;12.03;;;;;;;7.12;68.63;101657.48;1775078;78;21267;-57
2021/03/29 07:33:19;;;;;;;21.12;12.85;;;;;;;7.18;68.35;101655.44;1784085;78;21179;-58
2021/03/29 07:35:52;;;;;;;27.15;13.83;;;;;;;7.18;68.46;101660.67;1784527;78;21203;-58
2021/03/29 07:38:26;;;;;;;20.55;11.43;;;;;;;7.24;68.34;101662.99;1784191;78;21192;-57
2021/03/29 07:40:58;;;;;;;22.85;13.62;;;;;;;7.27;68.12;101665.11;1797557;78;21096;-58
2021/03/29 07:43:27;;;;;;;20.48;12.53;;;;;;;7.32;68.03;101668.36;1770978;79;21380;-57
2021/03/29 07:46:04;;;;;;;24.43;12.00;;;;;;;7.36;67.79;101668.16;1778577;78;21216;-57
2021/03/29 07:48:42;;;;;;;19.67;12.28;;;;;;;7.39;67.85;101673.70;1802793;78;21120;-58
2021/03/29 07:51:17;;;;;;;20.02;10.80;;;;;;;7.41;67.74;101676.65;1788276;79;21157;-57
2021/03/29 07:53:48;;;;;;;19.57;11.73;;;;;;;7.41;67.67;101677.09;1801784;78;21155;-58
2021/03/29 07:56:41;;;;;;;20.62;11.97;;;;;;;7.52;67.45;101678.76;1811969;78;21200;-57
2021/03/29 07:59:09;;;;;;;17.82;11.75;;;;;;;7.57;67.23;101683.32;1775638;80;21238;-59
2021/03/29 08:02:03;;;;;;;22.20;13.93;;;;;;;7.54;67.32;101688.70;1761118;80;21225;-58
2021/03/29 08:05:05;;;;;;;19.60;12.30;;;;;;;7.54;67.29;101692.62;1782133;79;21111;-58
2021/03/29 08:07:38;;;;;;;20.60;11.97;;;;;;;7.56;67.32;101692.09;1782139;78;21148;-57
2021/03/29 08:10:09;;;;;;;22.07;12.93;;;;;;;7.71;67.02;101694.92;1744772;80;21179;-58
2021/03/29 08:12:56;;;;;;;23.62;14.20;;;;;;;7.78;66.83;101695.02;1741928;78;21619;-58
2021/03/29 08:15:26;;;;;;;;;;;;;;;7.81;66.62;101694.41;1797859;78;21184;-59
2021/03/29 08:17:58;;;;;;;18.37;13.38;;;;;;;7.83;66.62;101698.73;1768267;78;20283;-58
2021/03/29 08:20:42;;;;;;;22.98;13.48;;;;;;;7.80;66.60;101701.89;1792299;78;22366;-58
2021/03/29 08:23:34;;;;;;;21.25;12.95;;;;;;;7.94;66.39;101701.23;1784384;78;21262;-59
2021/03/29 08:26:13;;;;;;;20.25;13.48;;;;;;;8.09;66.06;101695.72;1866444;74;22774;-58
2021/03/29 08:29:10;;;;;;;25.00;14.20;;;;;;;8.13;65.96;101704.28;1818829;75;21122;-59
2021/03/29 08:32:10;;;;;;;21.55;14.40;;;;;;;8.16;65.78;101704.13;1838163;75;22574;-59
2021/03/29 08:35:21;;;;;;;20.23;13.55;;;;;;;8.18;65.44;101708.36;1814610;77;21245;-58
2021/03/29 08:37:56;;;;;;;23.00;13.93;;;;;;;8.26;65.25;101715.03;1805327;78;21574;-60
2021/03/29 08:40:27;;;;;;;23.32;14.58;;;;;;;8.35;65.04;101712.80;1782264;79;21133;-61
2021/03/29 08:43:03;;;;;;;23.70;12.98;;;;;;;8.35;64.99;101715.43;1808316;77;21181;-60
2021/03/29 08:45:33;;;;;;;24.10;14.50;;;;;;;8.42;64.86;101715.10;1735330;79;21547;-60
2021/03/29 08:48:03;;;;;;;31.77;18.42;;;;;;;8.49;64.71;101721.77;1778238;79;21594;-59
2021/03/29 08:50:39;;;;;;;31.48;20.17;;;;;;;8.55;63.71;101717.06;1784576;78;21203;-59
2021/03/29 08:53:10;;;;;;;30.70;17.77;;;;;;;8.62;63.10;101721.54;1773040;78;21167;-58
2021/03/29 08:55:39;;;;;;;26.45;17.10;;;;;;;8.58;63.13;101731.81;1810209;78;21486;-58
2021/03/29 08:58:08;;;;;;;25.57;16.15;;;;;;;8.52;63.45;101737.36;1779737;78;21291;-59
2021/03/29 09:00:38;;;;;;;25.70;16.95;;;;;;;8.48;63.57;101729.27;1770649;78;21238;-60
2021/03/29 09:03:20;;;;;;;24.00;14.38;;;;;;;8.47;63.70;101721.87;1775997;78;21197;-59
2021/03/29 09:05:48;;;;;;;27.10;16.32;;;;;;;8.57;63.58;101722.23;1801702;78;21776;-59
2021/03/29 09:08:16;;;;;;;26.57;16.15;;;;;;;8.71;63.31;101727.65;1770475;78;21243;-59
2021/03/29 09:10:44;;;;;;;26.02;18.65;;;;;;;8.81;62.91;101728.03;1790005;78;21271;-60
2021/03/29 09:13:15;;;;;;;26.35;16.80;;;;;;;8.87;62.36;101731.64;1779235;78;21143;-59
2021/03/29 09:15:45;;;;;;;30.80;16.62;;;;;;;8.85;62.33;101733.50;1763388;80;21203;-61
2021/03/29 09:18:15;;;;;;;24.45;15.03;;;;;;;8.83;62.41;101735.84;1777906;78;21281;-59
2021/03/29 09:20:48;;;;;;;29.05;18.42;;;;;;;8.80;62.39;101735.98;1762443;78;21539;-59
2021/03/29 09:23:19;;;;;;;26.87;18.35;;;;;;;8.84;62.17;101746.70;1778532;79;21424;-59
2021/03/29 09:25:50;;;;;;;27.13;17.40;;;;;;;8.91;61.99;101738.92;1783462;78;21164;-60
2021/03/29 09:31:15;;;;;;;34.88;19.60;;;;;;;8.99;61.61;101739.82;1767074;78;21184;-59
2021/03/29 09:33:42;;;;;;;31.27;20.17;;;;;;;8.99;61.23;101741.13;1753610;79;21651;-60
2021/03/29 09:36:14;;;;;;;31.27;18.37;;;;;;;8.95;61.15;101746.17;1753653;80;21280;-59
2021/03/29 09:38:46;;;;;;;27.00;17.17;;;;;;;8.90;61.22;101740.67;1798319;77;21152;-59
2021/03/29 09:41:26;;;;;;;30.57;19.62;;;;;;;8.99;60.92;101753.78;1774170;78;21673;-58
2021/03/29 09:43:55;;;;;;;25.27;18.35;;;;;;;9.14;60.81;101759.19;1811114;78;21103;-58
2021/03/29 09:46:30;;;;;;;24.45;17.37;;;;;;;9.28;60.55;101754.07;1766614;80;21235;-59
2021/03/29 09:49:15;;;;;;;30.17;18.45;;;;;;;9.41;60.09;101749.84;1802810;78;21494;-59
2021/03/29 09:51:46;;;;;;;28.92;19.30;;;;;;;9.47;59.54;101750.00;1778449;79;21154;-59
2021/03/29 09:54:27;;;;;;;25.88;17.10;;;;;;;9.47;59.22;101753.45;1782863;80;21178;-59
2021/03/29 09:57:22;;;;;;;28.77;17.40;;;;;;;9.46;59.47;101755.72;1809552;78;21773;-59
2021/03/29 09:59:52;;;;;;;28.38;17.87;;;;;;;9.54;59.47;101752.66;1780148;78;21168;-59
2021/03/29 10:02:28;;;;;;;24.05;16.02;;;;;;;9.62;59.30;101759.67;1779936;79;21212;-59
2021/03/29 10:05:04;;;;;;;28.25;15.08;;;;;;;9.72;59.20;101757.41;1749820;79;21230;-59
2021/03/29 10:07:34;;;;;;;29.15;19.10;;;;;;;9.86;59.00;101756.16;1805327;78;21365;-59
2021/03/29 10:10:07;;;;;;;27.77;18.25;;;;;;;10.10;57.91;101752.27;1811245;78;21156;-58
2021/03/29 10:12:40;;;;;;;28.38;18.95;;;;;;;10.24;57.02;101747.08;1801340;78;21103;-59
2021/03/29 10:15:14;;;;;;;30.65;19.17;;;;;;;10.25;56.84;101746.61;1775760;78;21179;-59
2021/03/29 10:17:45;;;;;;;25.62;17.32;;;;;;;10.23;56.90;101754.11;1754527;80;21160;-60
2021/03/29 10:20:17;;;;;;;26.17;18.35;;;;;;;10.27;57.02;101756.56;1772589;78;21171;-59
2021/03/29 10:22:46;;;;;;;30.08;18.00;;;;;;;10.36;56.78;101759.56;1772925;78;21246;-59
2021/03/29 10:25:22;;;;;;;32.10;20.37;;;;;;;10.46;56.50;101751.99;1770324;78;21144;-60
2021/03/29 10:27:53;;;;;;;32.83;19.65;;;;;;;10.51;56.01;101749.94;1789974;78;21185;-59
2021/03/29 10:30:30;;;;;;;27.87;17.82;;;;;;;10.52;56.34;101754.72;1812567;78;21150;-58
2021/03/29 10:33:01;;;;;;;28.32;18.55;;;;;;;10.57;56.33;101761.88;1782678;78;21196;-58
2021/03/29 10:35:30;;;;;;;27.85;18.73;;;;;;;10.60;56.52;101759.08;1767876;79;21216;-58
2021/03/29 10:37:57;;;;;;;26.37;16.70;;;;;;;10.59;55.88;101763.95;1797600;78;21168;-58
2021/03/29 10:40:27;;;;;;;28.45;18.57;;;;;;;10.54;56.22;101762.92;1781804;78;21239;-58
2021/03/29 10:42:55;;;;;;;29.50;18.60;;;;;;;10.59;56.50;101762.19;1797682;78;21152;-59
2021/03/29 10:45:22;;;;;;;24.72;17.20;;;;;;;10.67;55.89;101766.15;1779606;78;21172;-57
2021/03/29 10:47:50;;;;;;;26.57;19.23;;;;;;;10.74;55.55;101762.21;1802168;78;21714;-57
2021/03/29 10:50:22;;;;;;;28.07;17.82;;;;;;;10.79;55.46;101769.37;1781910;78;21196;-58
2021/03/29 10:52:50;;;;;;;31.25;19.82;;;;;;;10.83;55.38;101773.53;1777230;78;21199;-58
2021/03/29 10:55:20;;;;;;;29.27;17.77;;;;;;;10.88;54.86;101760.94;1796528;78;21219;-59
2021/03/29 10:57:48;;;;;;;30.15;19.07;;;;;;;10.90;55.02;101768.27;1789478;78;21148;-60
2021/03/29 11:00:19;;;;;;;26.17;17.98;;;;;;;10.97;54.87;101765.64;1789414;78;21214;-58
2021/03/29 11:02:46;;;;;;;32.53;20.30;;;;;;;11.07;54.78;101766.43;1756158;79;21792;-58
2021/03/29 11:05:16;;;;;;;32.80;21.10;;;;;;;11.16;54.64;101764.55;1789900;78;21256;-58
2021/03/29 11:07:44;;;;;;;23.92;17.32;;;;;;;11.24;54.17;101754.39;1780290;78;21235;-59
2021/03/29 11:10:13;;;;;;;27.48;18.17;;;;;;;11.30;54.41;101767.67;1783505;79;21116;-60
2021/03/29 11:12:40;;;;;;;33.53;18.52;;;;;;;11.38;54.26;101755.33;1804560;78;21695;-58
2021/03/29 11:15:09;;;;;;;27.10;18.50;;;;;;;11.45;54.06;101762.78;1818641;78;21183;-59
2021/03/29 11:17:38;;;;;;;31.97;21.50;;;;;;;11.58;54.10;101765.96;1807704;77;21377;-58
2021/03/29 11:20:07;;;;;;;29.45;18.67;;;;;;;11.69;53.37;101763.03;1778703;78;21196;-57
2021/03/29 11:22:35;;;;;;;29.77;17.80;;;;;;;11.80;53.54;101766.33;1777757;78;21160;-59
2021/03/29 11:25:06;;;;;;;32.35;19.35;;;;;;;11.92;53.30;101762.55;1779745;78;21321;-59
2021/03/29 11:27:33;;;;;;;29.23;18.80;;;;;;;12.08;52.88;101762.78;1808351;78;21191;-59
2021/03/29 11:30:03;;;;;;;28.55;17.57;;;;;;;12.21;52.72;101765.48;1801168;78;21434;-59
2021/03/29 11:32:30;;;;;;;30.70;19.15;;;;;;;12.30;52.42;101764.52;1777610;78;21255;-59
2021/03/29 11:34:58;;;;;;;32.10;19.98;;;;;;;12.30;52.35;101756.12;1802470;78;21148;-59
2021/03/29 11:37:27;;;;;;;30.88;20.72;;;;;;;12.29;52.25;101761.04;1800308;77;21206;-59
2021/03/29 11:39:56;;;;;;;30.17;20.10;;;;;;;12.28;52.19;101759.81;1764601;79;21195;-59
2021/03/29 11:42:24;;;;;;;31.33;20.45;;;;;;;12.30;52.13;101764.52;1785276;78;21227;-59
2021/03/29 11:44:52;;;;;;;30.52;19.50;;;;;;;12.29;52.13;101759.72;1782855;78;21223;-59
2021/03/29 11:47:19;;;;;;;27.42;18.82;;;;;;;12.31;52.38;101751.22;1751650;80;21669;-59
2021/03/29 11:49:48;;;;;;;35.20;20.88;;;;;;;12.39;51.78;101757.30;1772081;78;21160;-56
2021/03/29 11:52:17;;;;;;;31.42;19.42;;;;;;;12.39;51.61;101758.17;1768234;78;21415;-58
2021/03/29 11:54:45;;;;;;;32.60;21.77;;;;;;;12.36;52.01;101755.72;1794319;78;21464;-58
2021/03/29 11:57:18;;;;;;;31.82;19.95;;;;;;;12.37;51.89;101752.60;1805459;78;21201;-57
2021/03/29 11:59:49;;;;;;;29.60;20.30;;;;;;;12.42;51.88;101755.33;1807788;78;22498;-57